Saturday, October 25, 2014
08:48 UTC
  |  Log In   |  Register Free
Airport Search:

Raleigh-Durham International Airport
(KRDU)

Airport information sponsored by:
Landmark Aviation - RDU at Raleigh-Durham International (KRDU), Raleigh/Durham, NC
FAA data valid effective September 18, 2014 - November 13, 2014 (unless otherwise noted).

 
 
 
 
 
 
 
 
 
 
 
 
 
 

Current Aviation Weather for Raleigh-Durham International Airport (KRDU)

The most recent METAR observation for KRDU was updated at: 0813
METAR Summary (Translated METAR)
KRDU
250751Z 00000KT 7SM BCFG FEW002 SCT250 06/04 A2997 RMK AO2 SLP147 T00560044 $
KIGX
250756Z AUTO 00000KT 10SM CLR 07/05 A2998 RMK AO2 SLP150 T00670050
(14 nm NW from KRDU)
KTTA
250755Z AUTO 00000KT 1 1/4SM BR SCT001 05/05 A2998 RMK AO2 T00500050
(23.4 nm SW from KRDU)
TAF Summary (Translated TAF)
KRDU
250522Z 2506/2606 VRB03KT P6SM SKC FM251800 25005KT P6SM SCT060
  Airport Weather Conditions for KRDU

 Current Weather at RDU
42° F
Patches Fog
North winds at 0.0 mph
RDU NOAA Radar

Pressure: 29.97 in
Humidity: 92%
Wind: Calm
Dew Point: 39.9°F
Visibility: 7.00 mi


Airport Weather Forecast for KRDU

Translated METAR and TAF for KRDU
Translated METAR for KRDU (0843 UTC 25 October 2014)
found at http://aviationweather.gov/adds/metars/
 
METAR text: KRDU 250751Z 00000KT 7SM BCFG FEW002 SCT250 06/04 A2997 RMK AO2 SLP147 T00560044 $
Conditions at: KRDU (RALEIGH/DURHAM , NC, US) observed 0751 UTC 25 October 2014
Temperature: 5.6°C (42°F)
Dewpoint: 4.4°C (40°F) [RH = 92%]
Pressure (altimeter): 29.97 inches Hg (1015.0 mb)
[Sea-level pressure: 1014.7 mb]
Winds: calm
Visibility: 7 miles (11 km)
Ceiling: at least 12,000 feet AGL
Clouds: few clouds at 200 feet AGL
scattered clouds at 25000 feet AGL
Weather: BCFG  (patches of fog)
SOME DATA ABOVE MAY BE INACCURATE!!!
"$" is an indication the sensor requires maintenance
Translated TAF for KRDU
Forecast for: KRDU (RALEIGH/DURHAM , NC, US)
TAF Text: KRDU 250522Z 2506/2606 VRB03KT P6SM SKC
Forecast period: 0600 to 1800 UTC 25 October 2014
Forecast type: FROM: standard forecast or significant change
Winds: variable direction winds at 3 MPH (3 knots; 1.6 m/s)
Visibility: 6 or more miles (10+ km)
Clouds: clear skies
Weather: no significant weather forecast for this period
TAF Text: FM251800 25005KT P6SM SCT060
Forecast period: 1800 UTC 25 October 2014 to 0600 UTC 26 October 2014
Forecast type: FROM: standard forecast or significant change
Winds: from the WSW (250 degrees) at 6 MPH (5 knots; 2.6 m/s)
Visibility: 6 or more miles (10+ km)
Clouds: scattered clouds at 6000 feet AGL
Weather: no significant weather forecast for this period

Find All Airport Services Find A Hotel Find A Rental Car Find A Golf Course Find A Restaurant $100 Hamburger



FBO's on the Field
FBO Company Facility Photos Services Transportation Aviation Fuel Prices: Prices include tax
Catering Weather Repair Courtesy Rental Type 100LL JetA JetA+ MOGAS 8087
 
Landmark Aviation - RDU

Landmark Aviation - RDU logo
Currently rated 4.4 by 2 people
FS:
Last Updated: Oct-24
Login to update fuel prices
SS:
Contact Landmark Aviation - RDUMore FBO Information
 
Tac Air - RDU

Currently rated 1.8 by 3 people
FS:Avfuel
Last Updated: Oct-22
Login to update fuel prices
SS:
Contact Tac Air - RDUMore FBO Information
 
Add another FBO Facility Photos Catering Weather Repair Courtesy Rental Type 100LL JetA JetA+ MOGAS 8087
Services Transportation Aviation Fuel Prices: Prices include tax


model-print
model-print
model-print
model-print